sensor_id;sensor_type;location;lat;lon;timestamp;P1;durP1;ratioP1;P2;durP2;ratioP2
14849;SDS011;7517;48.400;11.770;2023-07-20T00:02:07;2.60;;;2.33;;
14849;SDS011;7517;48.400;11.770;2023-07-20T00:04:35;2.53;;;2.13;;
14849;SDS011;7517;48.400;11.770;2023-07-20T00:07:03;3.97;;;2.20;;
14849;SDS011;7517;48.400;11.770;2023-07-20T00:09:31;2.50;;;2.00;;
14849;SDS011;7517;48.400;11.770;2023-07-20T00:11:58;2.23;;;2.03;;
14849;SDS011;7517;48.400;11.770;2023-07-20T00:14:27;2.70;;;1.80;;
14849;SDS011;7517;48.400;11.770;2023-07-20T00:16:55;1.90;;;1.80;;
14849;SDS011;7517;48.400;11.770;2023-07-20T00:19:23;2.20;;;2.00;;
14849;SDS011;7517;48.400;11.770;2023-07-20T00:21:51;2.30;;;1.83;;
14849;SDS011;7517;48.400;11.770;2023-07-20T00:24:18;2.27;;;1.90;;
14849;SDS011;7517;48.400;11.770;2023-07-20T00:26:47;1.70;;;1.60;;
14849;SDS011;7517;48.400;11.770;2023-07-20T00:29:14;2.27;;;1.90;;
14849;SDS011;7517;48.400;11.770;2023-07-20T00:31:42;1.73;;;1.63;;
14849;SDS011;7517;48.400;11.770;2023-07-20T00:34:10;3.40;;;1.80;;
14849;SDS011;7517;48.400;11.770;2023-07-20T00:36:37;2.30;;;1.87;;
14849;SDS011;7517;48.400;11.770;2023-07-20T00:39:04;1.80;;;1.40;;
14849;SDS011;7517;48.400;11.770;2023-07-20T00:41:31;1.67;;;1.57;;
14849;SDS011;7517;48.400;11.770;2023-07-20T00:43:58;2.90;;;1.60;;
14849;SDS011;7517;48.400;11.770;2023-07-20T00:46:25;2.03;;;1.50;;
14849;SDS011;7517;48.400;11.770;2023-07-20T00:48:55;2.60;;;1.70;;
14849;SDS011;7517;48.400;11.770;2023-07-20T00:51:22;2.57;;;1.77;;
14849;SDS011;7517;48.400;11.770;2023-07-20T00:53:52;1.47;;;1.37;;
14849;SDS011;7517;48.400;11.770;2023-07-20T00:56:20;3.07;;;1.30;;
14849;SDS011;7517;48.400;11.770;2023-07-20T00:58:48;1.50;;;1.37;;
14849;SDS011;7517;48.400;11.770;2023-07-20T01:01:15;1.70;;;1.60;;
14849;SDS011;7517;48.400;11.770;2023-07-20T01:03:43;2.63;;;1.47;;
14849;SDS011;7517;48.400;11.770;2023-07-20T01:06:14;1.77;;;1.60;;
14849;SDS011;7517;48.400;11.770;2023-07-20T01:08:56;3.27;;;1.83;;
14849;SDS011;7517;48.400;11.770;2023-07-20T01:11:36;3.67;;;1.70;;
14849;SDS011;7517;48.400;11.770;2023-07-20T01:14:09;2.43;;;1.43;;
14849;SDS011;7517;48.400;11.770;2023-07-20T01:16:38;1.50;;;1.40;;
14849;SDS011;7517;48.400;11.770;2023-07-20T01:19:06;2.60;;;1.50;;
14849;SDS011;7517;48.400;11.770;2023-07-20T01:21:37;2.30;;;2.00;;
14849;SDS011;7517;48.400;11.770;2023-07-20T01:31:19;1.37;;;1.17;;
14849;SDS011;7517;48.400;11.770;2023-07-20T01:33:50;1.63;;;1.50;;
14849;SDS011;7517;48.400;11.770;2023-07-20T01:36:21;1.80;;;1.70;;
14849;SDS011;7517;48.400;11.770;2023-07-20T01:38:52;1.60;;;1.50;;
14849;SDS011;7517;48.400;11.770;2023-07-20T01:41:22;1.70;;;1.37;;
14849;SDS011;7517;48.400;11.770;2023-07-20T01:43:49;1.93;;;1.60;;
14849;SDS011;7517;48.400;11.770;2023-07-20T01:46:17;1.40;;;1.30;;
14849;SDS011;7517;48.400;11.770;2023-07-20T01:48:45;1.70;;;1.60;;
14849;SDS011;7517;48.400;11.770;2023-07-20T01:51:14;3.20;;;1.90;;
14849;SDS011;7517;48.400;11.770;2023-07-20T01:53:42;1.60;;;1.50;;
14849;SDS011;7517;48.400;11.770;2023-07-20T01:56:10;3.30;;;1.60;;
14849;SDS011;7517;48.400;11.770;2023-07-20T01:58:37;1.87;;;1.70;;
14849;SDS011;7517;48.400;11.770;2023-07-20T02:01:06;2.27;;;1.50;;
14849;SDS011;7517;48.400;11.770;2023-07-20T02:03:35;1.87;;;1.77;;
14849;SDS011;7517;48.400;11.770;2023-07-20T02:06:02;1.40;;;1.30;;
14849;SDS011;7517;48.400;11.770;2023-07-20T02:08:29;2.93;;;2.00;;
14849;SDS011;7517;48.400;11.770;2023-07-20T02:10:56;3.13;;;1.60;;
14849;SDS011;7517;48.400;11.770;2023-07-20T02:13:24;1.67;;;1.57;;
14849;SDS011;7517;48.400;11.770;2023-07-20T02:15:51;2.30;;;1.40;;
14849;SDS011;7517;48.400;11.770;2023-07-20T02:18:18;1.47;;;1.37;;
14849;SDS011;7517;48.400;11.770;2023-07-20T02:20:47;2.00;;;1.63;;
14849;SDS011;7517;48.400;11.770;2023-07-20T02:23:14;1.83;;;1.40;;
14849;SDS011;7517;48.400;11.770;2023-07-20T02:25:41;2.20;;;1.70;;
14849;SDS011;7517;48.400;11.770;2023-07-20T02:28:13;1.50;;;1.40;;
14849;SDS011;7517;48.400;11.770;2023-07-20T02:30:41;1.60;;;1.40;;
14849;SDS011;7517;48.400;11.770;2023-07-20T02:33:09;1.43;;;1.30;;
14849;SDS011;7517;48.400;11.770;2023-07-20T02:35:37;3.83;;;1.20;;
14849;SDS011;7517;48.400;11.770;2023-07-20T02:38:05;1.77;;;1.60;;
14849;SDS011;7517;48.400;11.770;2023-07-20T02:40:33;2.70;;;1.40;;
14849;SDS011;7517;48.400;11.770;2023-07-20T02:43:00;1.67;;;1.47;;
14849;SDS011;7517;48.400;11.770;2023-07-20T02:45:27;1.83;;;1.30;;
14849;SDS011;7517;48.400;11.770;2023-07-20T02:47:55;1.33;;;0.97;;
14849;SDS011;7517;48.400;11.770;2023-07-20T02:50:22;2.47;;;1.20;;
14849;SDS011;7517;48.400;11.770;2023-07-20T02:52:49;1.43;;;1.00;;
14849;SDS011;7517;48.400;11.770;2023-07-20T02:55:18;1.50;;;1.00;;
14849;SDS011;7517;48.400;11.770;2023-07-20T02:57:45;2.20;;;1.53;;
14849;SDS011;7517;48.400;11.770;2023-07-20T03:00:13;1.37;;;1.07;;
14849;SDS011;7517;48.400;11.770;2023-07-20T03:02:41;1.00;;;0.90;;
14849;SDS011;7517;48.400;11.770;2023-07-20T03:05:09;1.10;;;1.00;;
14849;SDS011;7517;48.400;11.770;2023-07-20T03:07:37;1.10;;;0.93;;
14849;SDS011;7517;48.400;11.770;2023-07-20T03:10:04;1.67;;;1.00;;
14849;SDS011;7517;48.400;11.770;2023-07-20T03:12:35;1.53;;;0.90;;
14849;SDS011;7517;48.400;11.770;2023-07-20T03:15:05;1.10;;;1.00;;
14849;SDS011;7517;48.400;11.770;2023-07-20T03:17:34;1.40;;;0.90;;
14849;SDS011;7517;48.400;11.770;2023-07-20T03:20:01;1.70;;;1.60;;
14849;SDS011;7517;48.400;11.770;2023-07-20T03:22:29;1.23;;;1.00;;
14849;SDS011;7517;48.400;11.770;2023-07-20T03:24:56;1.40;;;1.03;;
14849;SDS011;7517;48.400;11.770;2023-07-20T03:27:23;3.40;;;1.77;;
14849;SDS011;7517;48.400;11.770;2023-07-20T03:29:51;2.20;;;0.80;;
14849;SDS011;7517;48.400;11.770;2023-07-20T03:32:19;1.37;;;0.83;;
14849;SDS011;7517;48.400;11.770;2023-07-20T03:34:52;3.80;;;1.60;;
14849;SDS011;7517;48.400;11.770;2023-07-20T03:37:19;1.63;;;0.87;;
14849;SDS011;7517;48.400;11.770;2023-07-20T03:39:46;1.70;;;0.90;;
14849;SDS011;7517;48.400;11.770;2023-07-20T03:42:14;1.23;;;0.80;;
14849;SDS011;7517;48.400;11.770;2023-07-20T03:44:41;2.40;;;1.10;;
14849;SDS011;7517;48.400;11.770;2023-07-20T03:47:10;3.13;;;1.20;;
14849;SDS011;7517;48.400;11.770;2023-07-20T03:49:38;1.00;;;1.00;;
14849;SDS011;7517;48.400;11.770;2023-07-20T03:52:05;2.27;;;0.90;;
14849;SDS011;7517;48.400;11.770;2023-07-20T03:54:32;1.17;;;1.00;;
14849;SDS011;7517;48.400;11.770;2023-07-20T03:56:59;1.27;;;1.17;;
14849;SDS011;7517;48.400;11.770;2023-07-20T03:59:26;1.30;;;1.20;;
14849;SDS011;7517;48.400;11.770;2023-07-20T04:01:53;1.00;;;0.90;;
14849;SDS011;7517;48.400;11.770;2023-07-20T04:04:21;1.30;;;0.87;;
14849;SDS011;7517;48.400;11.770;2023-07-20T04:06:49;0.93;;;0.80;;
14849;SDS011;7517;48.400;11.770;2023-07-20T04:09:16;1.07;;;1.00;;
14849;SDS011;7517;48.400;11.770;2023-07-20T04:11:43;1.57;;;0.83;;
14849;SDS011;7517;48.400;11.770;2023-07-20T04:14:10;1.00;;;0.80;;
14849;SDS011;7517;48.400;11.770;2023-07-20T04:16:37;0.70;;;0.67;;
14849;SDS011;7517;48.400;11.770;2023-07-20T04:19:04;2.53;;;0.93;;
14849;SDS011;7517;48.400;11.770;2023-07-20T04:21:39;1.70;;;1.20;;
14849;SDS011;7517;48.400;11.770;2023-07-20T04:24:07;2.07;;;0.80;;
14849;SDS011;7517;48.400;11.770;2023-07-20T04:26:34;2.00;;;0.70;;
14849;SDS011;7517;48.400;11.770;2023-07-20T04:29:01;1.23;;;0.93;;
14849;SDS011;7517;48.400;11.770;2023-07-20T04:31:29;2.73;;;0.90;;
14849;SDS011;7517;48.400;11.770;2023-07-20T04:33:58;0.83;;;0.83;;
14849;SDS011;7517;48.400;11.770;2023-07-20T04:36:25;1.63;;;0.73;;
14849;SDS011;7517;48.400;11.770;2023-07-20T04:38:54;1.43;;;0.73;;
14849;SDS011;7517;48.400;11.770;2023-07-20T04:41:21;1.13;;;0.90;;
14849;SDS011;7517;48.400;11.770;2023-07-20T04:43:51;1.10;;;0.90;;
14849;SDS011;7517;48.400;11.770;2023-07-20T04:46:18;0.93;;;0.80;;
14849;SDS011;7517;48.400;11.770;2023-07-20T04:48:46;1.30;;;0.90;;
14849;SDS011;7517;48.400;11.770;2023-07-20T04:51:14;1.37;;;1.00;;
14849;SDS011;7517;48.400;11.770;2023-07-20T04:53:42;1.53;;;1.10;;
14849;SDS011;7517;48.400;11.770;2023-07-20T04:56:12;1.97;;;1.13;;
14849;SDS011;7517;48.400;11.770;2023-07-20T04:58:41;1.33;;;1.07;;
14849;SDS011;7517;48.400;11.770;2023-07-20T05:01:08;0.70;;;0.70;;
14849;SDS011;7517;48.400;11.770;2023-07-20T05:03:35;1.03;;;1.03;;
14849;SDS011;7517;48.400;11.770;2023-07-20T05:06:02;1.33;;;0.70;;
14849;SDS011;7517;48.400;11.770;2023-07-20T05:08:29;1.40;;;0.80;;
14849;SDS011;7517;48.400;11.770;2023-07-20T05:10:56;1.43;;;0.70;;
14849;SDS011;7517;48.400;11.770;2023-07-20T05:13:25;1.77;;;0.93;;
14849;SDS011;7517;48.400;11.770;2023-07-20T05:15:52;2.47;;;1.50;;
14849;SDS011;7517;48.400;11.770;2023-07-20T05:18:20;1.07;;;0.97;;
14849;SDS011;7517;48.400;11.770;2023-07-20T05:20:47;1.20;;;0.80;;
14849;SDS011;7517;48.400;11.770;2023-07-20T05:23:17;1.00;;;0.90;;
14849;SDS011;7517;48.400;11.770;2023-07-20T05:25:45;1.23;;;0.90;;
14849;SDS011;7517;48.400;11.770;2023-07-20T05:28:16;1.33;;;0.90;;
14849;SDS011;7517;48.400;11.770;2023-07-20T05:30:44;0.80;;;0.80;;
14849;SDS011;7517;48.400;11.770;2023-07-20T05:33:12;1.27;;;0.90;;
14849;SDS011;7517;48.400;11.770;2023-07-20T05:35:39;1.43;;;0.80;;
14849;SDS011;7517;48.400;11.770;2023-07-20T05:38:06;1.47;;;0.90;;
14849;SDS011;7517;48.400;11.770;2023-07-20T05:40:35;1.30;;;0.80;;
14849;SDS011;7517;48.400;11.770;2023-07-20T05:43:03;1.00;;;0.90;;
14849;SDS011;7517;48.400;11.770;2023-07-20T05:45:31;1.60;;;1.00;;
14849;SDS011;7517;48.400;11.770;2023-07-20T05:48:00;1.20;;;1.00;;
14849;SDS011;7517;48.400;11.770;2023-07-20T05:50:28;1.30;;;0.80;;
14849;SDS011;7517;48.400;11.770;2023-07-20T05:52:55;1.03;;;1.00;;
14849;SDS011;7517;48.400;11.770;2023-07-20T05:55:22;2.40;;;0.93;;
14849;SDS011;7517;48.400;11.770;2023-07-20T05:57:50;1.17;;;1.03;;
14849;SDS011;7517;48.400;11.770;2023-07-20T06:00:17;1.13;;;1.00;;
14849;SDS011;7517;48.400;11.770;2023-07-20T06:02:51;1.63;;;0.80;;
14849;SDS011;7517;48.400;11.770;2023-07-20T06:05:21;1.33;;;0.90;;
14849;SDS011;7517;48.400;11.770;2023-07-20T06:07:48;0.80;;;0.70;;
14849;SDS011;7517;48.400;11.770;2023-07-20T06:10:16;0.93;;;0.90;;
14849;SDS011;7517;48.400;11.770;2023-07-20T06:12:43;1.13;;;0.90;;
14849;SDS011;7517;48.400;11.770;2023-07-20T06:15:23;2.03;;;1.00;;
14849;SDS011;7517;48.400;11.770;2023-07-20T06:17:53;1.43;;;0.90;;
14849;SDS011;7517;48.400;11.770;2023-07-20T06:20:24;2.47;;;0.87;;
14849;SDS011;7517;48.400;11.770;2023-07-20T06:22:51;1.20;;;0.70;;
14849;SDS011;7517;48.400;11.770;2023-07-20T06:25:19;1.20;;;1.00;;
14849;SDS011;7517;48.400;11.770;2023-07-20T06:27:48;1.33;;;0.90;;
14849;SDS011;7517;48.400;11.770;2023-07-20T06:30:16;1.70;;;0.90;;
14849;SDS011;7517;48.400;11.770;2023-07-20T06:32:44;1.10;;;1.00;;
14849;SDS011;7517;48.400;11.770;2023-07-20T06:35:13;1.10;;;0.90;;
14849;SDS011;7517;48.400;11.770;2023-07-20T06:37:43;1.40;;;0.80;;
14849;SDS011;7517;48.400;11.770;2023-07-20T06:40:12;4.47;;;1.20;;
14849;SDS011;7517;48.400;11.770;2023-07-20T06:42:39;1.70;;;1.17;;
14849;SDS011;7517;48.400;11.770;2023-07-20T06:45:07;0.93;;;0.80;;
14849;SDS011;7517;48.400;11.770;2023-07-20T06:47:37;1.30;;;0.80;;
14849;SDS011;7517;48.400;11.770;2023-07-20T06:50:07;1.17;;;0.90;;
14849;SDS011;7517;48.400;11.770;2023-07-20T06:52:36;0.80;;;0.70;;
14849;SDS011;7517;48.400;11.770;2023-07-20T06:55:07;2.97;;;1.50;;
14849;SDS011;7517;48.400;11.770;2023-07-20T06:57:35;1.30;;;0.90;;
14849;SDS011;7517;48.400;11.770;2023-07-20T07:00:02;1.27;;;1.17;;
14849;SDS011;7517;48.400;11.770;2023-07-20T07:02:31;1.60;;;1.10;;
14849;SDS011;7517;48.400;11.770;2023-07-20T07:04:59;1.27;;;1.17;;
14849;SDS011;7517;48.400;11.770;2023-07-20T07:07:27;0.93;;;0.83;;
14849;SDS011;7517;48.400;11.770;2023-07-20T07:09:54;1.30;;;1.20;;
14849;SDS011;7517;48.400;11.770;2023-07-20T07:12:23;4.03;;;1.10;;
14849;SDS011;7517;48.400;11.770;2023-07-20T07:14:50;1.13;;;0.97;;
14849;SDS011;7517;48.400;11.770;2023-07-20T07:17:18;1.00;;;0.90;;
14849;SDS011;7517;48.400;11.770;2023-07-20T07:19:46;0.93;;;0.90;;
14849;SDS011;7517;48.400;11.770;2023-07-20T07:22:13;1.03;;;0.97;;
14849;SDS011;7517;48.400;11.770;2023-07-20T07:24:40;1.40;;;1.10;;
14849;SDS011;7517;48.400;11.770;2023-07-20T07:27:08;1.00;;;1.00;;
14849;SDS011;7517;48.400;11.770;2023-07-20T07:29:37;1.20;;;0.90;;
14849;SDS011;7517;48.400;11.770;2023-07-20T07:32:04;2.00;;;1.00;;
14849;SDS011;7517;48.400;11.770;2023-07-20T07:34:35;1.93;;;0.73;;
14849;SDS011;7517;48.400;11.770;2023-07-20T07:37:03;1.23;;;0.80;;
14849;SDS011;7517;48.400;11.770;2023-07-20T07:39:32;1.07;;;0.97;;
14849;SDS011;7517;48.400;11.770;2023-07-20T07:41:59;2.73;;;1.00;;
14849;SDS011;7517;48.400;11.770;2023-07-20T07:44:26;1.20;;;1.10;;
14849;SDS011;7517;48.400;11.770;2023-07-20T07:46:55;1.00;;;0.90;;
14849;SDS011;7517;48.400;11.770;2023-07-20T07:49:22;0.80;;;0.70;;
14849;SDS011;7517;48.400;11.770;2023-07-20T07:51:50;1.77;;;1.10;;
14849;SDS011;7517;48.400;11.770;2023-07-20T07:54:18;1.47;;;0.80;;
14849;SDS011;7517;48.400;11.770;2023-07-20T07:56:45;0.73;;;0.63;;
14849;SDS011;7517;48.400;11.770;2023-07-20T07:59:13;1.27;;;0.67;;
14849;SDS011;7517;48.400;11.770;2023-07-20T08:01:41;1.03;;;0.93;;
14849;SDS011;7517;48.400;11.770;2023-07-20T08:04:10;1.07;;;0.90;;
14849;SDS011;7517;48.400;11.770;2023-07-20T08:06:38;1.27;;;0.60;;
14849;SDS011;7517;48.400;11.770;2023-07-20T08:09:05;0.70;;;0.60;;
14849;SDS011;7517;48.400;11.770;2023-07-20T08:11:32;1.43;;;0.87;;
14849;SDS011;7517;48.400;11.770;2023-07-20T08:14:00;0.83;;;0.70;;
14849;SDS011;7517;48.400;11.770;2023-07-20T08:16:27;1.70;;;0.83;;
14849;SDS011;7517;48.400;11.770;2023-07-20T08:18:55;0.60;;;0.60;;
14849;SDS011;7517;48.400;11.770;2023-07-20T08:21:23;2.23;;;1.00;;
14849;SDS011;7517;48.400;11.770;2023-07-20T08:23:51;1.67;;;0.80;;
14849;SDS011;7517;48.400;11.770;2023-07-20T08:26:18;1.27;;;0.97;;
14849;SDS011;7517;48.400;11.770;2023-07-20T08:28:47;2.63;;;0.87;;
14849;SDS011;7517;48.400;11.770;2023-07-20T08:31:14;1.37;;;0.80;;
14849;SDS011;7517;48.400;11.770;2023-07-20T08:33:42;1.23;;;0.80;;
14849;SDS011;7517;48.400;11.770;2023-07-20T08:36:09;1.40;;;0.60;;
14849;SDS011;7517;48.400;11.770;2023-07-20T08:38:38;1.73;;;0.60;;
14849;SDS011;7517;48.400;11.770;2023-07-20T08:41:06;0.60;;;0.60;;
14849;SDS011;7517;48.400;11.770;2023-07-20T08:43:35;1.60;;;0.80;;
14849;SDS011;7517;48.400;11.770;2023-07-20T08:46:07;0.93;;;0.63;;
14849;SDS011;7517;48.400;11.770;2023-07-20T08:48:37;1.20;;;0.70;;
14849;SDS011;7517;48.400;11.770;2023-07-20T08:51:06;0.80;;;0.80;;
14849;SDS011;7517;48.400;11.770;2023-07-20T08:53:33;0.77;;;0.77;;
14849;SDS011;7517;48.400;11.770;2023-07-20T08:56:02;1.00;;;0.60;;
14849;SDS011;7517;48.400;11.770;2023-07-20T08:58:31;1.13;;;0.70;;
14849;SDS011;7517;48.400;11.770;2023-07-20T09:01:01;0.88;;;0.70;;
14849;SDS011;7517;48.400;11.770;2023-07-20T09:03:30;0.60;;;0.60;;
14849;SDS011;7517;48.400;11.770;2023-07-20T09:05:57;0.60;;;0.60;;
14849;SDS011;7517;48.400;11.770;2023-07-20T09:08:25;0.75;;;0.60;;
14849;SDS011;7517;48.400;11.770;2023-07-20T09:10:52;0.63;;;0.60;;
14849;SDS011;7517;48.400;11.770;2023-07-20T09:13:21;0.55;;;0.55;;
14849;SDS011;7517;48.400;11.770;2023-07-20T09:15:53;0.68;;;0.68;;
14849;SDS011;7517;48.400;11.770;2023-07-20T09:18:24;0.60;;;0.60;;
14849;SDS011;7517;48.400;11.770;2023-07-20T09:20:52;0.90;;;0.60;;
14849;SDS011;7517;48.400;11.770;2023-07-20T09:23:19;0.60;;;0.60;;
14849;SDS011;7517;48.400;11.770;2023-07-20T09:25:48;0.85;;;0.55;;
14849;SDS011;7517;48.400;11.770;2023-07-20T09:28:16;1.70;;;0.90;;
14849;SDS011;7517;48.400;11.770;2023-07-20T09:30:45;0.70;;;0.70;;
14849;SDS011;7517;48.400;11.770;2023-07-20T09:33:18;1.10;;;0.68;;
14849;SDS011;7517;48.400;11.770;2023-07-20T09:35:47;0.60;;;0.60;;
14849;SDS011;7517;48.400;11.770;2023-07-20T09:38:14;0.95;;;0.77;;
14849;SDS011;7517;48.400;11.770;2023-07-20T09:40:42;0.90;;;0.82;;
14849;SDS011;7517;48.400;11.770;2023-07-20T09:43:09;1.15;;;0.68;;
14849;SDS011;7517;48.400;11.770;2023-07-20T09:45:39;1.20;;;0.90;;
14849;SDS011;7517;48.400;11.770;2023-07-20T09:48:09;0.95;;;0.80;;
14849;SDS011;7517;48.400;11.770;2023-07-20T09:50:41;1.77;;;0.90;;
14849;SDS011;7517;48.400;11.770;2023-07-20T09:53:16;0.70;;;0.70;;
14849;SDS011;7517;48.400;11.770;2023-07-20T09:55:44;1.77;;;0.95;;
14849;SDS011;7517;48.400;11.770;2023-07-20T09:58:13;1.23;;;0.70;;
14849;SDS011;7517;48.400;11.770;2023-07-20T10:00:41;0.80;;;0.70;;
14849;SDS011;7517;48.400;11.770;2023-07-20T10:03:14;0.80;;;0.80;;
14849;SDS011;7517;48.400;11.770;2023-07-20T10:05:51;1.25;;;1.00;;
14849;SDS011;7517;48.400;11.770;2023-07-20T10:08:24;1.08;;;0.60;;
14849;SDS011;7517;48.400;11.770;2023-07-20T10:10:52;1.17;;;0.68;;
14849;SDS011;7517;48.400;11.770;2023-07-20T10:13:20;0.70;;;0.70;;
14849;SDS011;7517;48.400;11.770;2023-07-20T10:15:58;1.08;;;0.52;;
14849;SDS011;7517;48.400;11.770;2023-07-20T10:18:32;0.82;;;0.82;;
14849;SDS011;7517;48.400;11.770;2023-07-20T10:21:09;1.30;;;0.80;;
14849;SDS011;7517;48.400;11.770;2023-07-20T10:23:37;1.55;;;0.70;;
14849;SDS011;7517;48.400;11.770;2023-07-20T10:26:06;1.23;;;0.82;;
14849;SDS011;7517;48.400;11.770;2023-07-20T10:28:35;1.20;;;0.60;;
14849;SDS011;7517;48.400;11.770;2023-07-20T10:31:02;0.68;;;0.60;;
14849;SDS011;7517;48.400;11.770;2023-07-20T10:33:32;0.70;;;0.70;;
14849;SDS011;7517;48.400;11.770;2023-07-20T10:36:00;0.70;;;0.70;;
14849;SDS011;7517;48.400;11.770;2023-07-20T10:38:38;1.02;;;0.98;;
14849;SDS011;7517;48.400;11.770;2023-07-20T10:41:18;1.58;;;0.70;;
14849;SDS011;7517;48.400;11.770;2023-07-20T10:43:47;1.30;;;0.90;;
14849;SDS011;7517;48.400;11.770;2023-07-20T10:49:11;0.95;;;0.73;;
14849;SDS011;7517;48.400;11.770;2023-07-20T10:51:41;1.02;;;0.70;;
14849;SDS011;7517;48.400;11.770;2023-07-20T10:57:21;1.15;;;0.80;;
14849;SDS011;7517;48.400;11.770;2023-07-20T10:59:50;1.63;;;0.70;;
14849;SDS011;7517;48.400;11.770;2023-07-20T11:02:18;1.08;;;0.77;;
14849;SDS011;7517;48.400;11.770;2023-07-20T11:04:49;1.15;;;0.68;;
14849;SDS011;7517;48.400;11.770;2023-07-20T11:07:16;0.60;;;0.60;;
14849;SDS011;7517;48.400;11.770;2023-07-20T11:10:12;1.35;;;0.60;;
14849;SDS011;7517;48.400;11.770;2023-07-20T11:12:40;1.95;;;0.77;;
14849;SDS011;7517;48.400;11.770;2023-07-20T11:15:08;1.27;;;0.73;;
14849;SDS011;7517;48.400;11.770;2023-07-20T11:17:36;0.95;;;0.70;;
14849;SDS011;7517;48.400;11.770;2023-07-20T11:20:07;1.10;;;0.70;;
14849;SDS011;7517;48.400;11.770;2023-07-20T11:22:40;0.80;;;0.70;;
14849;SDS011;7517;48.400;11.770;2023-07-20T11:25:09;0.77;;;0.73;;
14849;SDS011;7517;48.400;11.770;2023-07-20T11:27:43;1.90;;;0.80;;
14849;SDS011;7517;48.400;11.770;2023-07-20T11:30:15;0.68;;;0.68;;
14849;SDS011;7517;48.400;11.770;2023-07-20T11:32:47;0.85;;;0.70;;
14849;SDS011;7517;48.400;11.770;2023-07-20T11:35:16;0.75;;;0.75;;
14849;SDS011;7517;48.400;11.770;2023-07-20T11:37:43;1.30;;;0.90;;
14849;SDS011;7517;48.400;11.770;2023-07-20T11:40:11;0.80;;;0.60;;
14849;SDS011;7517;48.400;11.770;2023-07-20T11:42:39;0.60;;;0.60;;
14849;SDS011;7517;48.400;11.770;2023-07-20T11:45:07;0.70;;;0.70;;
14849;SDS011;7517;48.400;11.770;2023-07-20T11:47:39;0.75;;;0.75;;
14849;SDS011;7517;48.400;11.770;2023-07-20T11:50:08;0.70;;;0.70;;
14849;SDS011;7517;48.400;11.770;2023-07-20T11:52:40;1.10;;;0.85;;
14849;SDS011;7517;48.400;11.770;2023-07-20T11:55:08;0.65;;;0.60;;
14849;SDS011;7517;48.400;11.770;2023-07-20T11:57:37;0.82;;;0.82;;
14849;SDS011;7517;48.400;11.770;2023-07-20T12:00:05;1.77;;;0.95;;
14849;SDS011;7517;48.400;11.770;2023-07-20T12:02:37;0.70;;;0.70;;
14849;SDS011;7517;48.400;11.770;2023-07-20T12:05:05;1.77;;;0.55;;
14849;SDS011;7517;48.400;11.770;2023-07-20T12:07:35;0.90;;;0.80;;
14849;SDS011;7517;48.400;11.770;2023-07-20T12:10:08;0.80;;;0.65;;
14849;SDS011;7517;48.400;11.770;2023-07-20T12:12:37;1.63;;;1.35;;
14849;SDS011;7517;48.400;11.770;2023-07-20T12:15:13;1.08;;;1.00;;
14849;SDS011;7517;48.400;11.770;2023-07-20T12:17:43;0.90;;;0.80;;
14849;SDS011;7517;48.400;11.770;2023-07-20T12:20:11;1.13;;;0.73;;
14849;SDS011;7517;48.400;11.770;2023-07-20T12:22:41;0.60;;;0.60;;
14849;SDS011;7517;48.400;11.770;2023-07-20T12:25:12;0.70;;;0.68;;
14849;SDS011;7517;48.400;11.770;2023-07-20T12:27:39;0.70;;;0.70;;
14849;SDS011;7517;48.400;11.770;2023-07-20T12:30:08;0.60;;;0.60;;
14849;SDS011;7517;48.400;11.770;2023-07-20T12:32:36;1.42;;;0.98;;
14849;SDS011;7517;48.400;11.770;2023-07-20T12:35:04;1.13;;;0.70;;
14849;SDS011;7517;48.400;11.770;2023-07-20T12:37:32;1.27;;;0.70;;
14849;SDS011;7517;48.400;11.770;2023-07-20T12:40:00;0.90;;;0.70;;
14849;SDS011;7517;48.400;11.770;2023-07-20T12:42:30;1.25;;;1.15;;
14849;SDS011;7517;48.400;11.770;2023-07-20T12:44:57;0.75;;;0.50;;
14849;SDS011;7517;48.400;11.770;2023-07-20T12:47:25;0.60;;;0.60;;
14849;SDS011;7517;48.400;11.770;2023-07-20T12:49:52;0.70;;;0.70;;
14849;SDS011;7517;48.400;11.770;2023-07-20T12:52:19;0.85;;;0.70;;
14849;SDS011;7517;48.400;11.770;2023-07-20T12:54:46;0.82;;;0.75;;
14849;SDS011;7517;48.400;11.770;2023-07-20T12:57:14;0.88;;;0.68;;
14849;SDS011;7517;48.400;11.770;2023-07-20T12:59:42;2.20;;;0.93;;
14849;SDS011;7517;48.400;11.770;2023-07-20T13:02:10;1.45;;;0.75;;
14849;SDS011;7517;48.400;11.770;2023-07-20T13:04:37;1.25;;;0.65;;
14849;SDS011;7517;48.400;11.770;2023-07-20T13:07:05;0.63;;;0.63;;
14849;SDS011;7517;48.400;11.770;2023-07-20T13:09:37;0.70;;;0.68;;
14849;SDS011;7517;48.400;11.770;2023-07-20T13:12:04;0.75;;;0.57;;
14849;SDS011;7517;48.400;11.770;2023-07-20T13:14:33;1.20;;;0.60;;
14849;SDS011;7517;48.400;11.770;2023-07-20T13:17:01;0.80;;;0.65;;
14849;SDS011;7517;48.400;11.770;2023-07-20T13:19:29;0.70;;;0.70;;
14849;SDS011;7517;48.400;11.770;2023-07-20T13:21:56;2.35;;;0.57;;
14849;SDS011;7517;48.400;11.770;2023-07-20T13:24:23;1.83;;;0.90;;
14849;SDS011;7517;48.400;11.770;2023-07-20T13:26:50;0.80;;;0.80;;
14849;SDS011;7517;48.400;11.770;2023-07-20T13:29:18;1.08;;;0.70;;
14849;SDS011;7517;48.400;11.770;2023-07-20T13:31:45;0.70;;;0.57;;
14849;SDS011;7517;48.400;11.770;2023-07-20T13:34:14;0.68;;;0.63;;
14849;SDS011;7517;48.400;11.770;2023-07-20T13:36:43;0.57;;;0.57;;
14849;SDS011;7517;48.400;11.770;2023-07-20T13:39:11;1.05;;;0.70;;
14849;SDS011;7517;48.400;11.770;2023-07-20T13:41:38;0.80;;;0.80;;
14849;SDS011;7517;48.400;11.770;2023-07-20T13:44:05;1.67;;;0.73;;
14849;SDS011;7517;48.400;11.770;2023-07-20T13:46:33;0.77;;;0.77;;
14849;SDS011;7517;48.400;11.770;2023-07-20T13:49:00;1.38;;;0.82;;
14849;SDS011;7517;48.400;11.770;2023-07-20T13:51:29;1.00;;;0.68;;
14849;SDS011;7517;48.400;11.770;2023-07-20T13:53:56;2.08;;;0.80;;
14849;SDS011;7517;48.400;11.770;2023-07-20T13:56:23;0.50;;;0.50;;
14849;SDS011;7517;48.400;11.770;2023-07-20T13:58:51;1.33;;;0.70;;
14849;SDS011;7517;48.400;11.770;2023-07-20T14:01:18;0.82;;;0.80;;
14849;SDS011;7517;48.400;11.770;2023-07-20T14:03:48;0.85;;;0.85;;
14849;SDS011;7517;48.400;11.770;2023-07-20T14:06:15;0.90;;;0.85;;
14849;SDS011;7517;48.400;11.770;2023-07-20T14:08:44;1.33;;;0.80;;
14849;SDS011;7517;48.400;11.770;2023-07-20T14:11:14;1.38;;;0.73;;
14849;SDS011;7517;48.400;11.770;2023-07-20T14:13:42;1.45;;;0.75;;
14849;SDS011;7517;48.400;11.770;2023-07-20T14:16:09;1.05;;;0.73;;
14849;SDS011;7517;48.400;11.770;2023-07-20T14:18:36;0.82;;;0.77;;
14849;SDS011;7517;48.400;11.770;2023-07-20T14:21:04;0.57;;;0.57;;
14849;SDS011;7517;48.400;11.770;2023-07-20T14:23:31;0.90;;;0.90;;
14849;SDS011;7517;48.400;11.770;2023-07-20T14:26:00;1.05;;;0.90;;
14849;SDS011;7517;48.400;11.770;2023-07-20T14:28:30;0.80;;;0.80;;
14849;SDS011;7517;48.400;11.770;2023-07-20T14:30:57;1.20;;;0.63;;
14849;SDS011;7517;48.400;11.770;2023-07-20T14:33:25;0.90;;;0.80;;
14849;SDS011;7517;48.400;11.770;2023-07-20T14:35:52;0.60;;;0.60;;
14849;SDS011;7517;48.400;11.770;2023-07-20T14:38:20;0.65;;;0.60;;
14849;SDS011;7517;48.400;11.770;2023-07-20T14:40:48;0.63;;;0.63;;
14849;SDS011;7517;48.400;11.770;2023-07-20T14:43:18;1.25;;;0.70;;
14849;SDS011;7517;48.400;11.770;2023-07-20T14:45:46;0.85;;;0.70;;
14849;SDS011;7517;48.400;11.770;2023-07-20T14:48:15;0.63;;;0.63;;
14849;SDS011;7517;48.400;11.770;2023-07-20T14:50:42;1.23;;;0.90;;
14849;SDS011;7517;48.400;11.770;2023-07-20T14:53:12;0.93;;;0.80;;
14849;SDS011;7517;48.400;11.770;2023-07-20T14:55:41;2.40;;;0.90;;
14849;SDS011;7517;48.400;11.770;2023-07-20T14:58:09;0.65;;;0.60;;
14849;SDS011;7517;48.400;11.770;2023-07-20T15:00:38;1.67;;;0.88;;
14849;SDS011;7517;48.400;11.770;2023-07-20T15:03:06;1.23;;;0.68;;
14849;SDS011;7517;48.400;11.770;2023-07-20T15:05:34;1.30;;;0.77;;
14849;SDS011;7517;48.400;11.770;2023-07-20T15:08:03;0.70;;;0.70;;
14849;SDS011;7517;48.400;11.770;2023-07-20T15:10:32;1.13;;;1.13;;